This is the latest recevied weather packets stored in our database for station/object NQ9F. If no packets are shown the sender has not sent any weather packets the latest 1 day(s).
| Time | Temp. | Humidity | Pressure | Rain* | Wind** | Luminosity | Snow |
|---|---|---|---|---|---|---|---|
| 1778006315 | 28.89° C | 63% | 1005.4 hPa | 0 mm | 5.81 m/s, 227° | 372 W/m² | - |
| 1778006012 | 28.89° C | 62% | 1005 hPa | 0 mm | 4.92 m/s, 204° | 733 W/m² | - |
| 1778005709 | 28.89° C | 63% | 1005.2 hPa | 0 mm | 3.58 m/s, 212° | 750 W/m² | - |
| 1778005405 | 28.89° C | 62% | 1005.1 hPa | 0 mm | 5.81 m/s, 203° | 451 W/m² | - |
| 1778005102 | 28.33° C | 62% | 1005.2 hPa | 0 mm | 4.02 m/s, 209° | 466 W/m² | - |
| 1778004800 | 28.89° C | 63% | 1005.1 hPa | 0 mm | 4.47 m/s, 234° | 464 W/m² | - |
| 1778004496 | 28.33° C | 63% | 1005.2 hPa | 0 mm | 4.92 m/s, 215° | 669 W/m² | - |
| 1778004192 | 28.33° C | 65% | 1005.3 hPa | 0 mm | 2.24 m/s, 206° | 485 W/m² | - |
| 1778003889 | 28.33° C | 66% | 1005.2 hPa | 0 mm | 3.13 m/s, 217° | 514 W/m² | - |
| 1778003585 | 28.33° C | 67% | 1005.4 hPa | 0 mm | 1.79 m/s, 225° | 514 W/m² | - |
| 1778003282 | 27.78° C | 66% | 1005.4 hPa | 0 mm | 3.58 m/s, 218° | 498 W/m² | - |
| 1778002979 | 28.33° C | 67% | 1005.2 hPa | 0 mm | 4.92 m/s, 209° | 429 W/m² | - |
| 1778002675 | 28.89° C | 66% | 1005.3 hPa | 0 mm | 4.47 m/s, 198° | 641 W/m² | - |
| 1778002372 | 27.78° C | 68% | 1005.5 hPa | 0 mm | 3.13 m/s, 208° | 834 W/m² | - |
| 1778002069 | 27.78° C | 68% | 1005.1 hPa | 0 mm | 3.58 m/s, 181° | 551 W/m² | - |
| 1778001766 | 27.78° C | 68% | 1005.3 hPa | 0 mm | 4.02 m/s, 219° | 509 W/m² | - |
| 1778001466 | 27.78° C | 67% | 1005.3 hPa | 0 mm | 1.34 m/s, 169° | 659 W/m² | - |
| 1778001163 | 27.78° C | 67% | 1005.1 hPa | 0 mm | 3.13 m/s, 198° | 620 W/m² | - |
| 1778000860 | 27.78° C | 66% | 1005 hPa | 0 mm | 7.6 m/s, 231° | 606 W/m² | - |
| 1778000557 | 27.78° C | 67% | 1005 hPa | 0 mm | 4.02 m/s, 184° | 617 W/m² | - |
| 1778000252 | 27.22° C | 67% | 1005.2 hPa | 0 mm | 2.24 m/s, 201° | 656 W/m² | - |
| 1777999949 | 27.78° C | 66% | 1004.9 hPa | 0 mm | 4.02 m/s, 204° | 640 W/m² | - |
| 1777999644 | 27.22° C | 68% | 1005 hPa | 0 mm | 2.24 m/s, 199° | 678 W/m² | - |
| 1777999341 | 27.22° C | 69% | 1005.1 hPa | 0 mm | 3.13 m/s, 229° | 649 W/m² | - |
| 1777999039 | 26.67° C | 68% | 1005.2 hPa | 0 mm | 1.79 m/s, 184° | 482 W/m² | - |
* Rain latest hour (hover to see other rain measurements)
** Current wind speed in m/s (hover to see current wind gust speed)